createdAt,value
2018-04-10T00:00:51.381Z,17.50
2018-04-10T00:03:18.960Z,17.50
2018-04-10T00:05:46.508Z,17.50
2018-04-10T00:08:14.069Z,17.50
2018-04-10T00:10:41.633Z,17.50
2018-04-10T00:13:09.203Z,17.50
2018-04-10T00:15:36.786Z,17.50
2018-04-10T00:18:05.111Z,17.50
2018-04-10T00:20:32.664Z,17.50
2018-04-10T00:23:00.219Z,17.40
2018-04-10T00:25:28.550Z,17.40
2018-04-10T00:27:56.102Z,17.40
2018-04-10T00:30:23.670Z,17.40
2018-04-10T00:32:51.999Z,17.40
2018-04-10T00:35:19.558Z,17.40
2018-04-10T00:37:47.876Z,17.40
2018-04-10T00:40:15.436Z,17.40
2018-04-10T00:42:43.005Z,17.40
2018-04-10T00:45:11.324Z,17.40
2018-04-10T00:47:38.883Z,17.40
2018-04-10T00:50:06.435Z,17.40
2018-04-10T00:52:33.984Z,17.40
2018-04-10T00:55:01.527Z,17.40
2018-04-10T00:57:29.847Z,17.40
2018-04-10T00:59:57.404Z,17.40
2018-04-10T01:02:24.956Z,17.40
2018-04-10T01:04:53.264Z,17.30
2018-04-10T01:07:20.810Z,17.40
2018-04-10T01:09:48.366Z,17.40
2018-04-10T01:12:15.920Z,17.30
2018-04-10T01:14:43.479Z,17.30
2018-04-10T01:17:11.027Z,17.30
2018-04-10T01:19:38.593Z,17.30
2018-04-10T01:22:06.143Z,17.30
2018-04-10T01:24:33.697Z,17.30
2018-04-10T01:27:02.012Z,17.30
2018-04-10T01:29:29.594Z,17.30
2018-04-10T01:31:57.919Z,17.30
2018-04-10T01:34:25.502Z,17.30
2018-04-10T01:36:53.049Z,17.30
2018-04-10T01:39:20.601Z,17.30
2018-04-10T01:41:48.163Z,17.30
2018-04-10T01:44:15.713Z,17.40
2018-04-10T01:46:43.263Z,17.30
2018-04-10T01:49:10.834Z,17.30
2018-04-10T01:51:38.406Z,17.30
2018-04-10T01:54:05.957Z,17.30
2018-04-10T01:56:33.535Z,17.30
2018-04-10T01:59:01.091Z,17.30
2018-04-10T02:01:28.659Z,17.30
2018-04-10T02:03:56.211Z,17.30
2018-04-10T02:06:23.774Z,17.30
2018-04-10T02:08:51.317Z,17.30
2018-04-10T02:11:18.860Z,17.30
2018-04-10T02:13:46.424Z,17.30
2018-04-10T02:16:13.973Z,17.30
2018-04-10T02:18:41.529Z,17.30
2018-04-10T02:21:09.079Z,17.20
2018-04-10T02:23:36.639Z,17.20
2018-04-10T02:26:04.193Z,17.20
2018-04-10T02:28:31.767Z,17.20
2018-04-10T02:30:59.314Z,17.20
2018-04-10T02:33:26.882Z,17.20
2018-04-10T02:35:54.437Z,17.20
2018-04-10T02:38:21.990Z,17.20
2018-04-10T02:40:49.558Z,17.20
2018-04-10T02:43:17.116Z,17.20
2018-04-10T02:45:44.668Z,17.20
2018-04-10T02:48:12.220Z,17.20
2018-04-10T02:50:39.771Z,17.20
2018-04-10T02:53:07.328Z,17.20
2018-04-10T02:55:34.874Z,17.20
2018-04-10T02:58:03.196Z,17.20
2018-04-10T03:00:30.744Z,17.20
2018-04-10T03:02:58.305Z,17.20
2018-04-10T03:05:25.859Z,17.20
2018-04-10T03:07:53.420Z,17.20
2018-04-10T03:10:20.975Z,17.20
2018-04-10T03:12:48.544Z,17.20
2018-04-10T03:15:16.091Z,17.20
2018-04-10T03:17:43.635Z,17.20
2018-04-10T03:20:11.208Z,17.10
2018-04-10T03:22:39.532Z,17.10
2018-04-10T03:25:07.085Z,17.10
2018-04-10T03:27:34.644Z,17.10
2018-04-10T03:30:02.207Z,17.10
2018-04-10T03:32:29.765Z,17.20
2018-04-10T03:34:57.323Z,17.10
2018-04-10T03:37:24.888Z,17.10
2018-04-10T03:39:52.451Z,17.10
2018-04-10T03:42:20.011Z,17.10
2018-04-10T03:44:47.566Z,17.10
2018-04-10T03:47:15.131Z,17.10
2018-04-10T03:49:42.679Z,17.10
2018-04-10T03:52:10.236Z,17.10
2018-04-10T03:54:37.799Z,17.10
2018-04-10T03:57:05.360Z,17.10
2018-04-10T03:59:32.902Z,17.10
2018-04-10T04:02:00.468Z,17.10
2018-04-10T04:04:28.027Z,17.00
2018-04-10T04:06:55.591Z,17.00
2018-04-10T04:09:23.151Z,17.00
2018-04-10T04:11:50.708Z,17.10
2018-04-10T04:14:18.271Z,17.10
2018-04-10T04:16:57.630Z,17.00
2018-04-10T04:19:37.806Z,17.00
2018-04-10T04:22:17.185Z,17.00
2018-04-10T04:24:44.744Z,17.10
2018-04-10T04:27:12.332Z,17.00
2018-04-10T04:29:41.148Z,17.00
2018-04-10T04:32:08.705Z,17.00
2018-04-10T04:34:36.260Z,17.00
2018-04-10T04:37:03.812Z,17.00
2018-04-10T04:39:31.375Z,17.00
2018-04-10T04:41:58.927Z,17.00
2018-04-10T04:44:26.488Z,17.00
2018-04-10T04:46:54.037Z,17.00
2018-04-10T04:49:22.356Z,17.00
2018-04-10T04:51:49.903Z,17.00
2018-04-10T04:54:17.514Z,17.00
2018-04-10T04:56:45.857Z,17.00
2018-04-10T04:59:13.409Z,17.00
2018-04-10T05:01:40.998Z,17.00
2018-04-10T05:04:09.360Z,17.00
2018-04-10T05:06:36.907Z,17.00
2018-04-10T05:09:06.374Z,17.00
2018-04-10T05:11:34.689Z,17.00
2018-04-10T05:14:02.246Z,16.90
2018-04-10T05:16:29.859Z,17.00
2018-04-10T05:18:58.186Z,17.00
2018-04-10T05:21:25.744Z,17.00
2018-04-10T05:23:53.296Z,17.00
2018-04-10T05:26:20.848Z,16.90
2018-04-10T05:28:48.405Z,17.00
2018-04-10T05:31:15.972Z,17.00
2018-04-10T05:33:43.532Z,17.00
2018-04-10T05:36:11.460Z,17.00
2018-04-10T05:38:39.028Z,17.00
2018-04-10T05:41:06.573Z,17.00
2018-04-10T05:43:34.888Z,17.00
2018-04-10T05:46:02.440Z,17.00
2018-04-10T05:48:30.010Z,17.00
2018-04-10T05:50:57.564Z,17.00
2018-04-10T05:53:25.123Z,17.10
2018-04-10T05:55:52.683Z,17.10
2018-04-10T05:58:20.247Z,17.20
2018-04-10T06:00:47.814Z,17.20
2018-04-10T06:03:15.395Z,17.20
2018-04-10T06:05:42.952Z,17.20
2018-04-10T06:08:10.506Z,17.30
2018-04-10T06:10:38.071Z,17.30
2018-04-10T06:13:05.644Z,17.30
2018-04-10T06:15:33.204Z,17.40
2018-04-10T06:18:00.765Z,17.40
2018-04-10T06:20:28.308Z,17.50
2018-04-10T06:22:56.792Z,17.50
2018-04-10T06:25:24.363Z,17.50
2018-04-10T06:27:52.697Z,17.60
2018-04-10T06:30:20.271Z,17.60
2018-04-10T06:32:47.847Z,17.60
2018-04-10T06:35:15.398Z,17.70
2018-04-10T06:37:42.948Z,17.70
2018-04-10T06:40:10.783Z,17.70
2018-04-10T06:42:38.336Z,17.80
2018-04-10T06:45:05.913Z,17.80
2018-04-10T06:47:33.490Z,17.80
2018-04-10T06:50:01.089Z,17.90
2018-04-10T06:52:29.406Z,17.90
2018-04-10T06:54:56.959Z,17.90
2018-04-10T06:57:24.537Z,18.00
2018-04-10T06:59:52.084Z,18.00
2018-04-10T07:02:19.635Z,18.00
2018-04-10T07:04:47.198Z,18.10
2018-04-10T07:07:14.775Z,18.10
2018-04-10T07:09:42.336Z,18.10
2018-04-10T07:12:09.899Z,18.20
2018-04-10T07:14:37.449Z,18.20
2018-04-10T07:17:05.007Z,18.20
2018-04-10T07:19:32.592Z,18.20
2018-04-10T07:22:00.143Z,18.30
2018-04-10T07:24:27.704Z,18.30
2018-04-10T07:26:55.372Z,18.30
2018-04-10T07:29:22.923Z,18.30
2018-04-10T07:31:50.495Z,18.30
2018-04-10T07:34:18.036Z,18.30
2018-04-10T07:36:45.602Z,18.40
2018-04-10T07:39:13.169Z,18.40
2018-04-10T07:41:40.754Z,18.40
2018-04-10T07:44:08.705Z,18.40
2018-04-10T07:46:37.023Z,18.50
2018-04-10T07:49:04.604Z,18.50
2018-04-10T07:51:32.153Z,18.50
2018-04-10T07:53:59.721Z,18.50
2018-04-10T07:56:27.268Z,18.50
2018-04-10T07:58:54.829Z,18.50
2018-04-10T08:01:22.384Z,18.50
2018-04-10T08:03:49.931Z,18.50
2018-04-10T08:06:17.475Z,18.60
2018-04-10T08:08:45.031Z,18.60
2018-04-10T08:11:12.584Z,18.60
2018-04-10T08:13:40.903Z,18.60
2018-04-10T08:16:08.513Z,18.60
2018-04-10T08:18:36.833Z,18.60
2018-04-10T08:21:04.392Z,18.70
2018-04-10T08:23:31.946Z,18.70
2018-04-10T08:25:59.500Z,18.70
2018-04-10T08:28:27.074Z,18.70
2018-04-10T08:30:54.629Z,18.70
2018-04-10T08:33:22.180Z,18.80
2018-04-10T08:35:49.733Z,18.80
2018-04-10T08:38:17.291Z,18.80
2018-04-10T08:40:44.865Z,18.80
2018-04-10T08:43:12.415Z,18.90
2018-04-10T08:45:39.964Z,18.90
2018-04-10T08:48:07.521Z,18.90
2018-04-10T08:50:35.085Z,18.90
2018-04-10T08:53:02.669Z,18.90
2018-04-10T08:55:30.256Z,18.90
2018-04-10T08:57:57.812Z,18.90
2018-04-10T09:00:25.364Z,18.90
2018-04-10T09:02:52.932Z,18.90
2018-04-10T09:05:20.478Z,19.00
2018-04-10T09:07:48.106Z,19.00
2018-04-10T09:10:15.669Z,19.00
2018-04-10T09:12:43.233Z,19.00
2018-04-10T09:15:10.776Z,19.00
2018-04-10T09:17:38.347Z,19.00
2018-04-10T09:20:05.905Z,19.00
2018-04-10T09:22:33.464Z,19.00
2018-04-10T09:25:01.017Z,19.00
2018-04-10T09:27:28.576Z,19.00
2018-04-10T09:29:56.142Z,19.00
2018-04-10T09:32:23.712Z,19.00
2018-04-10T09:34:51.263Z,19.10
2018-04-10T09:37:18.816Z,19.00
2018-04-10T09:39:46.384Z,19.10
2018-04-10T09:42:14.209Z,19.10
2018-04-10T09:44:41.809Z,19.10
2018-04-10T09:47:09.379Z,19.10
2018-04-10T09:49:37.131Z,19.10
2018-04-10T09:52:04.904Z,19.10
2018-04-10T09:54:32.463Z,19.10
2018-04-10T09:57:00.069Z,19.10
2018-04-10T09:59:28.391Z,19.10
2018-04-10T10:01:56.014Z,19.10
2018-04-10T10:04:23.565Z,19.10
2018-04-10T10:06:51.892Z,19.10
2018-04-10T10:09:19.445Z,19.10
2018-04-10T10:11:47.012Z,19.10
2018-04-10T10:14:14.560Z,19.10
2018-04-10T10:16:42.113Z,19.10
2018-04-10T10:19:09.661Z,19.10
2018-04-10T10:21:37.220Z,19.10
2018-04-10T10:24:04.788Z,19.10
2018-04-10T10:26:32.360Z,19.10
2018-04-10T10:28:59.916Z,19.10
2018-04-10T10:31:27.492Z,19.10
2018-04-10T10:33:55.039Z,19.10
2018-04-10T10:36:22.600Z,19.10
2018-04-10T10:38:50.156Z,19.10
2018-04-10T10:41:17.722Z,19.10
2018-04-10T10:43:45.283Z,19.10
2018-04-10T10:46:12.836Z,19.10
2018-04-10T10:48:40.387Z,19.10
2018-04-10T10:51:07.964Z,19.10
2018-04-10T10:53:35.528Z,19.10
2018-04-10T10:56:03.202Z,19.10
2018-04-10T10:58:30.844Z,19.00
2018-04-10T11:00:58.453Z,19.00
2018-04-10T11:03:26.749Z,19.00
2018-04-10T11:05:54.307Z,19.00
2018-04-10T11:08:21.860Z,19.00
2018-04-10T11:10:49.424Z,19.00
2018-04-10T11:13:16.991Z,19.00
2018-04-10T11:15:44.563Z,19.00
2018-04-10T11:18:12.127Z,19.00
2018-04-10T11:20:39.686Z,19.00
2018-04-10T11:23:07.292Z,19.00
2018-04-10T11:25:35.608Z,19.00
2018-04-10T11:28:03.156Z,19.00
2018-04-10T11:30:30.718Z,19.00
2018-04-10T11:32:58.300Z,19.00
2018-04-10T11:35:25.851Z,19.00
2018-04-10T11:37:53.409Z,19.00
2018-04-10T11:40:20.959Z,18.90
2018-04-10T11:42:48.524Z,19.00
2018-04-10T11:45:16.087Z,18.90
2018-04-10T11:47:43.663Z,18.90
2018-04-10T11:50:11.228Z,19.00
2018-04-10T11:52:38.792Z,18.90
2018-04-10T11:55:07.136Z,18.90
2018-04-10T11:57:34.725Z,18.90
2018-04-10T12:00:02.303Z,19.00
2018-04-10T12:02:30.662Z,18.90
2018-04-10T12:04:58.216Z,18.90
2018-04-10T12:07:25.791Z,19.00
2018-04-10T12:09:54.112Z,18.90
2018-04-10T12:12:22.181Z,18.90
2018-04-10T12:14:50.272Z,18.90
2018-04-10T12:17:17.844Z,18.90
2018-04-10T12:19:45.394Z,18.90
2018-04-10T12:22:12.952Z,18.90
2018-04-10T12:24:40.499Z,18.90
2018-04-10T12:27:08.048Z,18.90
2018-04-10T12:29:35.608Z,18.90
2018-04-10T12:32:03.166Z,18.90
2018-04-10T12:34:30.720Z,18.90
2018-04-10T12:36:58.312Z,18.90
2018-04-10T12:39:25.875Z,18.90
2018-04-10T12:41:53.444Z,18.90
2018-04-10T12:44:21.005Z,18.90
2018-04-10T12:46:48.596Z,18.90
2018-04-10T12:49:16.149Z,18.90
2018-04-10T12:51:44.720Z,18.90
2018-04-10T12:54:13.051Z,18.90
2018-04-10T12:56:40.616Z,18.90
2018-04-10T12:59:08.170Z,18.90
2018-04-10T13:01:35.749Z,18.90
2018-04-10T13:04:04.099Z,18.90
2018-04-10T13:06:31.666Z,18.90
2018-04-10T13:08:59.212Z,18.90
2018-04-10T13:11:26.813Z,18.90
2018-04-10T13:13:54.384Z,18.90
2018-04-10T13:16:21.930Z,19.00
2018-04-10T13:18:49.499Z,19.00
2018-04-10T13:21:17.068Z,19.00
2018-04-10T13:23:45.391Z,19.00
2018-04-10T13:26:16.382Z,18.90
2018-04-10T13:28:44.696Z,19.00
2018-04-10T13:31:13.165Z,18.90
2018-04-10T13:33:40.744Z,19.00
2018-04-10T13:36:08.489Z,19.00
2018-04-10T13:38:36.076Z,19.00
2018-04-10T13:41:03.648Z,19.00
2018-04-10T13:43:31.207Z,19.00
2018-04-10T13:45:58.783Z,19.00
2018-04-10T13:48:26.329Z,19.00
2018-04-10T13:50:53.890Z,19.00
2018-04-10T13:53:21.444Z,19.00
2018-04-10T13:55:49.033Z,19.00
2018-04-10T13:58:17.360Z,19.00
2018-04-10T14:00:44.908Z,19.00
2018-04-10T14:03:12.473Z,19.10
2018-04-10T14:05:40.250Z,19.10
2018-04-10T14:08:07.800Z,19.10
2018-04-10T14:10:35.361Z,19.10
2018-04-10T14:13:02.928Z,19.00
2018-04-10T14:15:30.480Z,19.00
2018-04-10T14:17:58.036Z,19.00
2018-04-10T14:20:25.609Z,19.00
2018-04-10T14:22:53.176Z,19.00
2018-04-10T14:25:20.729Z,19.00
2018-04-10T14:27:48.283Z,19.00
2018-04-10T14:30:15.859Z,19.00
2018-04-10T14:32:43.458Z,19.00
2018-04-10T14:35:11.009Z,19.00
2018-04-10T14:37:39.350Z,19.00
2018-04-10T14:40:06.895Z,19.00
2018-04-10T14:42:34.453Z,19.00
2018-04-10T14:45:02.007Z,19.00
2018-04-10T14:47:29.621Z,19.00
2018-04-10T14:49:57.141Z,19.00
2018-04-10T14:52:24.700Z,19.00
2018-04-10T14:54:52.268Z,18.90
2018-04-10T14:57:19.814Z,19.00
2018-04-10T14:59:47.398Z,19.00
2018-04-10T15:02:14.927Z,18.90
2018-04-10T15:04:42.478Z,19.00
2018-04-10T15:07:10.040Z,18.90
2018-04-10T15:09:37.601Z,18.90
2018-04-10T15:14:36.961Z,18.90
2018-04-10T15:17:05.286Z,18.90
2018-04-10T15:19:32.889Z,18.90
2018-04-10T15:22:00.429Z,18.90
2018-04-10T15:24:27.989Z,18.90
2018-04-10T15:26:55.555Z,18.80
2018-04-10T15:29:23.104Z,18.90
2018-04-10T15:31:50.661Z,18.80
2018-04-10T15:34:18.263Z,18.80
2018-04-10T15:36:45.793Z,18.80
2018-04-10T15:39:14.347Z,18.80
2018-04-10T15:41:41.911Z,18.80
2018-04-10T15:44:10.675Z,18.80
2018-04-10T15:46:39.016Z,18.70
2018-04-10T15:49:06.584Z,18.80
2018-04-10T15:51:34.154Z,18.80
2018-04-10T15:54:01.733Z,18.70
2018-04-10T15:56:29.343Z,18.70
2018-04-10T15:58:56.900Z,18.70
2018-04-10T16:01:26.198Z,18.70
2018-04-10T16:03:53.753Z,18.70
2018-04-10T16:06:22.316Z,18.70
2018-04-10T16:08:49.885Z,18.70
2018-04-10T16:11:17.490Z,18.70
2018-04-10T16:13:45.061Z,18.70
2018-04-10T16:16:12.648Z,18.70
2018-04-10T16:18:40.232Z,18.60
2018-04-10T16:21:07.788Z,18.60
2018-04-10T16:23:35.349Z,18.60
2018-04-10T16:26:02.899Z,18.60
2018-04-10T16:28:30.452Z,18.60
2018-04-10T16:30:58.928Z,18.60
2018-04-10T16:33:26.489Z,18.60
2018-04-10T16:35:59.606Z,18.60
2018-04-10T16:38:27.931Z,18.60
2018-04-10T16:40:55.516Z,18.60
2018-04-10T16:43:23.067Z,18.60
2018-04-10T16:45:50.650Z,18.50
2018-04-10T16:48:19.337Z,18.60
2018-04-10T16:50:47.844Z,18.50
2018-04-10T16:53:15.412Z,18.50
2018-04-10T16:55:45.004Z,18.50
2018-04-10T16:58:12.575Z,18.50
2018-04-10T17:03:36.458Z,18.50
2018-04-10T17:06:04.849Z,18.50
2018-04-10T17:08:32.553Z,18.50
2018-04-10T17:11:00.129Z,18.50
2018-04-10T17:13:27.774Z,18.50
2018-04-10T17:15:55.375Z,18.50
2018-04-10T17:18:22.978Z,18.50
2018-04-10T17:20:50.535Z,18.50
2018-04-10T17:23:18.097Z,18.50
2018-04-10T17:25:45.686Z,18.50
2018-04-10T17:28:13.254Z,18.50
2018-04-10T17:30:40.844Z,18.50
2018-04-10T17:33:10.424Z,18.40
2018-04-10T17:35:38.789Z,18.40
2018-04-10T17:38:06.432Z,18.40
2018-04-10T17:40:34.122Z,18.40
2018-04-10T17:43:03.384Z,18.40
2018-04-10T17:45:31.787Z,18.40
2018-04-10T17:54:16.075Z,18.40
2018-04-10T18:02:45.173Z,18.40
2018-04-10T18:05:12.890Z,18.40
2018-04-10T18:07:53.740Z,18.40
2018-04-10T18:10:21.293Z,18.40
2018-04-10T18:12:48.839Z,18.50
2018-04-10T18:15:16.402Z,18.50
2018-04-10T18:17:43.964Z,18.50
2018-04-10T18:20:11.528Z,18.50
2018-04-10T18:22:39.087Z,18.50
2018-04-10T18:25:06.652Z,18.50
2018-04-10T18:27:34.204Z,18.50
2018-04-10T18:30:02.422Z,18.50
2018-04-10T18:32:30.699Z,18.50
2018-04-10T18:34:58.249Z,18.50
2018-04-10T18:37:26.573Z,18.50
2018-04-10T18:39:54.141Z,18.50
2018-04-10T18:42:25.289Z,18.50
2018-04-10T18:44:52.853Z,18.50
2018-04-10T18:47:20.405Z,18.50
2018-04-10T18:49:47.960Z,18.50
2018-04-10T18:52:15.528Z,18.50
2018-04-10T18:54:43.096Z,18.50
2018-04-10T18:57:10.655Z,18.50
2018-04-10T18:59:38.215Z,18.50
2018-04-10T19:02:05.797Z,18.50
2018-04-10T19:04:35.181Z,18.50
2018-04-10T19:07:04.899Z,18.50
2018-04-10T19:09:35.261Z,18.50
2018-04-10T19:12:02.847Z,18.50
2018-04-10T19:14:30.434Z,18.50
2018-04-10T19:16:58.006Z,18.50
2018-04-10T19:19:26.327Z,18.50
2018-04-10T19:21:53.917Z,18.40
2018-04-10T19:24:21.484Z,18.50
2018-04-10T19:26:49.043Z,18.50
2018-04-10T19:29:16.637Z,18.50
2018-04-10T19:31:44.165Z,18.50
2018-04-10T19:34:11.739Z,18.50
2018-04-10T19:36:40.080Z,18.50
2018-04-10T19:39:07.649Z,18.50
2018-04-10T19:41:35.204Z,18.50
2018-04-10T19:44:02.770Z,18.50
2018-04-10T19:46:30.329Z,18.40
2018-04-10T19:48:57.928Z,18.40
2018-04-10T19:51:25.523Z,18.40
2018-04-10T19:53:53.084Z,18.50
2018-04-10T19:56:20.665Z,18.40
2018-04-10T19:58:48.220Z,18.50
2018-04-10T20:01:15.788Z,18.40
2018-04-10T20:03:43.389Z,18.40
2018-04-10T20:06:11.695Z,18.40
2018-04-10T20:08:39.268Z,18.40
2018-04-10T20:11:06.843Z,18.40
2018-04-10T20:13:34.417Z,18.40
2018-04-10T20:16:02.754Z,18.40
2018-04-10T20:18:30.341Z,18.40
2018-04-10T20:20:57.896Z,18.40
2018-04-10T20:23:25.469Z,18.40
2018-04-10T20:25:53.796Z,18.40
2018-04-10T20:28:21.353Z,18.40
2018-04-10T20:30:48.912Z,18.40
2018-04-10T20:33:16.478Z,18.40
2018-04-10T20:35:44.041Z,18.40
2018-04-10T20:38:11.587Z,18.40
2018-04-10T20:40:39.140Z,18.40
2018-04-10T20:43:06.694Z,18.40
2018-04-10T20:45:34.335Z,18.40
2018-04-10T20:48:01.904Z,18.40
2018-04-10T20:50:29.480Z,18.40
2018-04-10T20:52:57.033Z,18.40
2018-04-10T20:55:24.630Z,18.40
2018-04-10T20:57:52.216Z,18.40
2018-04-10T21:00:20.544Z,18.40
2018-04-10T21:02:48.106Z,18.30
2018-04-10T21:05:15.653Z,18.40
2018-04-10T21:07:43.209Z,18.40
2018-04-10T21:10:10.849Z,18.30
2018-04-10T21:12:38.399Z,18.30
2018-04-10T21:15:05.952Z,18.40
2018-04-10T21:17:34.269Z,18.30
2018-04-10T21:20:01.826Z,18.30
2018-04-10T21:22:29.383Z,18.30
2018-04-10T21:24:56.928Z,18.30
2018-04-10T21:27:24.484Z,18.30
2018-04-10T21:29:52.035Z,18.30
2018-04-10T21:32:19.596Z,18.30
2018-04-10T21:34:47.161Z,18.30
2018-04-10T21:37:14.734Z,18.30
2018-04-10T21:39:42.285Z,18.30
2018-04-10T21:42:09.872Z,18.30
2018-04-10T21:44:37.429Z,18.30
2018-04-10T21:47:04.985Z,18.30
2018-04-10T21:49:32.535Z,18.30
2018-04-10T21:52:00.094Z,18.30
2018-04-10T21:54:27.656Z,18.30
2018-04-10T21:56:55.220Z,18.30
2018-04-10T21:59:22.776Z,18.30
2018-04-10T22:01:50.333Z,18.30
2018-04-10T22:04:17.876Z,18.30
2018-04-10T22:06:45.437Z,18.30
2018-04-10T22:09:12.996Z,18.30
2018-04-10T22:11:40.557Z,18.30
2018-04-10T22:14:08.181Z,18.30
2018-04-10T22:16:35.696Z,18.30
2018-04-10T22:19:03.252Z,18.30
2018-04-10T22:21:30.809Z,18.30
2018-04-10T22:23:58.372Z,18.30
2018-04-10T22:26:25.932Z,18.30
2018-04-10T22:28:53.484Z,18.30
2018-04-10T22:31:21.039Z,18.30
2018-04-10T22:33:48.599Z,18.30
2018-04-10T22:36:16.150Z,18.30
2018-04-10T22:38:43.704Z,18.30
2018-04-10T22:41:11.264Z,18.30
2018-04-10T22:43:38.824Z,18.30
2018-04-10T22:46:06.380Z,18.30
2018-04-10T22:48:33.923Z,18.30
2018-04-10T22:51:01.482Z,18.30
2018-04-10T22:53:29.032Z,18.30
2018-04-10T22:55:56.596Z,18.30
2018-04-10T22:58:24.147Z,18.20
2018-04-10T23:00:51.700Z,18.20
2018-04-10T23:03:19.268Z,18.30
2018-04-10T23:05:46.832Z,18.30
2018-04-10T23:08:14.388Z,18.20
2018-04-10T23:10:41.941Z,18.20
2018-04-10T23:13:09.495Z,18.20
2018-04-10T23:15:37.069Z,18.20
2018-04-10T23:18:05.409Z,18.20
2018-04-10T23:20:33.747Z,18.20
2018-04-10T23:23:01.303Z,18.20
2018-04-10T23:25:28.879Z,18.20
2018-04-10T23:27:56.553Z,18.30
2018-04-10T23:30:24.105Z,18.30
2018-04-10T23:32:51.660Z,18.30
2018-04-10T23:35:19.223Z,18.30
2018-04-10T23:37:46.781Z,18.20
2018-04-10T23:40:14.337Z,18.20
2018-04-10T23:42:41.901Z,18.20
2018-04-10T23:45:09.461Z,18.20
2018-04-10T23:47:37.011Z,18.20
2018-04-10T23:50:04.572Z,18.20
2018-04-10T23:52:32.123Z,18.20
2018-04-10T23:54:59.676Z,18.20
2018-04-10T23:57:27.220Z,18.20
2018-04-10T23:59:54.773Z,18.20
